Weather History for Oakland, MD

Change the Weather History Date:

Saturday, March 16, 2013

  Actual Average (KMGW) Record (KMGW)
Temperature  
Mean Temperature 42 °F 42 °F  
Max Temperature 51 °F 52 °F 75 °F (1990)
Min Temperature 32 °F 32 °F 12 °F (1992)
Degree Days  
Heating Degree Days 24 23  
Month to date heating degree days 407  
Since 1 July heating degree days 4296  
Cooling Degree Days 0 0  
Month to date cooling degree days 0  
Year to date cooling degree days 0  
Moisture  
Dew Point 39 °F    
Average Humidity 98    
Maximum Humidity 100    
Minimum Humidity 81    
Precipitation  
Precipitation 0.00 in 0.13 in 1.03 in (2002)
Month to date precipitation 1.81  
Year to date precipitation 7.22  
Sea Level Pressure  
Sea Level Pressure 29.71 in    
Wind  
Wind Speed 10 mph (West)    
Max Wind Speed 16 mph    
Max Gust Speed 25 mph    
Visibility 6 miles    
Events Fog    
T = Trace of Precipitation, MM = Missing Value Source: NWS Daily Summary

Daily Weather History Graph

Daily Weather History Graph

Search for Another Location

Airport:

Trip Planner

Search our weather history database for the weather conditions in past years. The results will help you decide how hot, cold, wet, or windy it might be!

Date:

Astronomy

Mar. 16, 2013 Rise Set
Actual Time 7:26 AM EDT 7:25 PM EDT
Civil Twilight 7:00 AM EDT 7:52 PM EDT
Nautical Twilight 6:28 AM EDT 8:23 PM EDT
Astronomical Twilight 5:57 AM EDT 8:55 PM EDT
Moon 9:56 AM EDT (3/16) No Moon Set
Length of Visible Light 12h 52m
Length of Day
11h 58m
Waxing Crescent, 23% of the Moon is Illuminated
Mar 16
Waxing Crescent
Mar 19
First Quarter
Mar 27
Full
Apr 3
Last Quarter
Apr 10
New

Hourly Weather History & Observations

Time (EDT) Temp. Windchill Dew Point Humidity Pressure Visibility Wind Dir Wind Speed Gust Speed Precip Events Conditions
12:10 AM 37.4 °F 29.8 °F 32.0 °F 81% 29.79 in 10.0 mi West 11.5 mph 17.3 mph N/A   Overcast
12:30 AM 35.6 °F 28.6 °F 32.0 °F 87% 29.79 in 10.0 mi WNW 9.2 mph 18.4 mph N/A   Overcast
12:50 AM 35.6 °F 29.2 °F 33.8 °F 93% 29.78 in 10.0 mi WNW 8.1 mph - N/A   Overcast
1:10 AM 35.6 °F 29.9 °F 33.8 °F 93% 29.78 in 7.0 mi West 6.9 mph - N/A   Overcast
1:30 AM 35.6 °F 28.0 °F 35.6 °F 100% 29.78 in 7.0 mi West 10.4 mph - N/A   Overcast
1:50 AM 33.8 °F 26.4 °F 33.8 °F 100% 29.77 in 7.0 mi West 9.2 mph - N/A   Overcast
2:10 AM 33.8 °F 25.8 °F 33.8 °F 100% 29.78 in 5.0 mi West 10.4 mph - N/A   Overcast
2:30 AM 33.8 °F 27.0 °F 33.8 °F 100% 29.77 in 4.0 mi West 8.1 mph - N/A   Overcast
2:50 AM 33.8 °F 25.8 °F 33.8 °F 100% 29.76 in 5.0 mi West 10.4 mph - N/A   Overcast
3:10 AM 33.8 °F 25.8 °F 33.8 °F 100% 29.76 in 5.0 mi West 10.4 mph 18.4 mph N/A   Overcast
3:30 AM 33.8 °F 25.8 °F 33.8 °F 100% 29.75 in 2.5 mi WSW 10.4 mph 19.6 mph N/A   Overcast
3:50 AM 35.6 °F 28.6 °F 35.6 °F 100% 29.73 in 3.0 mi West 9.2 mph - N/A   Overcast
4:10 AM 35.6 °F 29.9 °F 35.6 °F 100% 29.72 in 5.0 mi WSW 6.9 mph - N/A   Overcast
4:50 AM 35.6 °F 30.7 °F 35.6 °F 100% 29.70 in 10.0 mi West 5.8 mph - N/A   Overcast
5:10 AM 37.4 °F 31.4 °F 37.4 °F 100% 29.70 in 10.0 mi West 8.1 mph - N/A   Overcast
5:30 AM 37.4 °F 31.4 °F 37.4 °F 100% 29.70 in 10.0 mi West 8.1 mph - N/A   Overcast
5:50 AM 37.4 °F 30.8 °F 37.4 °F 100% 29.70 in 10.0 mi WSW 9.2 mph - N/A   Overcast
6:30 AM 37.4 °F 30.8 °F 37.4 °F 100% 29.70 in 10.0 mi SW 9.2 mph - N/A   Overcast
6:50 AM 37.4 °F 32.1 °F 37.4 °F 100% 29.70 in 10.0 mi WSW 6.9 mph - N/A   Overcast
7:10 AM 37.4 °F 30.3 °F 37.4 °F 100% 29.70 in 10.0 mi SW 10.4 mph - N/A   Overcast
7:30 AM 37.4 °F 30.8 °F 37.4 °F 100% 29.70 in 10.0 mi SW 9.2 mph - N/A   Overcast
7:50 AM 37.4 °F 31.4 °F 37.4 °F 100% 29.71 in 10.0 mi SSW 8.1 mph - N/A   Overcast
8:10 AM 37.4 °F 30.3 °F 37.4 °F 100% 29.69 in 10.0 mi SSW 10.4 mph - N/A   Overcast
8:30 AM 37.4 °F 31.4 °F 37.4 °F 100% 29.69 in 7.0 mi South 8.1 mph - N/A   Overcast
8:50 AM 37.4 °F 30.8 °F 37.4 °F 100% 29.69 in 7.0 mi SSW 9.2 mph - N/A   Overcast
9:10 AM 37.4 °F 30.8 °F 37.4 °F 100% 29.68 in 7.0 mi South 9.2 mph - N/A   Overcast
9:30 AM 39.2 °F 33.0 °F 39.2 °F 100% 29.67 in 10.0 mi South 9.2 mph - N/A   Overcast
9:50 AM 39.2 °F 32.0 °F 39.2 °F 100% 29.67 in 10.0 mi South 11.5 mph - N/A   Overcast
10:10 AM 41.0 °F 33.9 °F 41.0 °F 100% 29.65 in 10.0 mi South 12.7 mph - N/A   Overcast
10:30 AM 41.0 °F 34.3 °F 41.0 °F 100% 29.65 in 10.0 mi SSW 11.5 mph - N/A   Mostly Cloudy
10:50 AM 41.0 °F 34.7 °F 41.0 °F 100% 29.64 in 10.0 mi South 10.4 mph - N/A   Overcast
11:10 AM 42.8 °F 38.0 °F 42.8 °F 100% 29.63 in 10.0 mi South 8.1 mph - N/A   Overcast
11:30 AM 44.6 °F 38.8 °F 44.6 °F 100% 29.63 in 10.0 mi SW 11.5 mph 18.4 mph N/A   Overcast
11:50 AM 46.4 °F 41.5 °F 46.4 °F 100% 29.62 in 10.0 mi SW 10.4 mph 18.4 mph N/A   Overcast
12:10 PM 46.4 °F 40.7 °F 46.4 °F 100% 29.62 in 10.0 mi SW 12.7 mph 19.6 mph N/A   Overcast
12:30 PM 46.4 °F 40.7 °F 46.4 °F 100% 29.61 in 10.0 mi SW 12.7 mph 19.6 mph N/A   Overcast
12:50 PM 50.0 °F - 46.4 °F 87% 29.59 in 10.0 mi SW 8.1 mph 18.4 mph N/A   Mostly Cloudy
1:10 PM 51.8 °F - 46.4 °F 82% 29.60 in 10.0 mi SW 9.2 mph 16.1 mph N/A   Mostly Cloudy
1:30 PM 50.0 °F - 44.6 °F 82% 29.60 in 10.0 mi SW 12.7 mph 25.3 mph N/A   Overcast
1:50 PM 48.2 °F - 44.6 °F 87% 29.61 in 10.0 mi WSW 11.5 mph 25.3 mph N/A   Overcast
2:10 PM 48.2 °F - 46.4 °F 93% 29.61 in 10.0 mi West 13.8 mph 20.7 mph N/A   Overcast
2:30 PM 46.4 °F 41.1 °F 46.4 °F 100% 29.61 in 10.0 mi West 11.5 mph 25.3 mph N/A   Overcast
2:50 PM 46.4 °F 41.9 °F 46.4 °F 100% 29.61 in 10.0 mi WSW 9.2 mph 18.4 mph N/A   Overcast
3:10 PM 46.4 °F 42.4 °F 46.4 °F 100% 29.62 in 2.0 mi West 8.1 mph 19.6 mph N/A   Overcast
3:30 PM 46.4 °F 42.4 °F 46.4 °F 100% 29.62 in 1.8 mi West 8.1 mph - N/A   Overcast
3:50 PM 46.4 °F 41.9 °F 46.4 °F 100% 29.63 in 2.5 mi West 9.2 mph 17.3 mph N/A   Overcast
4:10 PM 46.4 °F 42.4 °F 46.4 °F 100% 29.63 in 4.0 mi WNW 8.1 mph 16.1 mph N/A   Overcast
4:30 PM 46.4 °F 41.5 °F 46.4 °F 100% 29.64 in 5.0 mi West 10.4 mph 17.3 mph N/A   Overcast
4:50 PM 46.4 °F 40.7 °F 46.4 °F 100% 29.65 in 4.0 mi WNW 12.7 mph 19.6 mph N/A   Overcast
5:10 PM 44.6 °F 38.8 °F 44.6 °F 100% 29.66 in 2.0 mi NW 11.5 mph 20.7 mph N/A   Overcast
5:30 PM 42.8 °F 35.1 °F 42.8 °F 100% 29.68 in 0.2 mi WNW 16.1 mph 21.9 mph N/A Fog Fog
5:50 PM 41.0 °F 33.9 °F 41.0 °F 100% 29.70 in 0.2 mi WNW 12.7 mph 21.9 mph N/A Fog Fog
6:10 PM 39.2 °F 33.0 °F 39.2 °F 100% 29.70 in 0.2 mi NW 9.2 mph 18.4 mph N/A Fog Fog
6:30 PM 37.4 °F 30.8 °F 37.4 °F 100% 29.71 in 0.2 mi WNW 9.2 mph 20.7 mph N/A Fog Fog
6:50 PM 37.4 °F 30.3 °F 37.4 °F 100% 29.73 in 0.5 mi WNW 10.4 mph 16.1 mph N/A Fog Fog
7:10 PM 37.4 °F 31.4 °F 37.4 °F 100% 29.74 in 0.8 mi WNW 8.1 mph - N/A   Overcast
7:30 PM 37.4 °F 32.1 °F 37.4 °F 100% 29.75 in 0.5 mi NW 6.9 mph 17.3 mph N/A Fog Fog
7:50 PM 37.4 °F 31.4 °F 37.4 °F 100% 29.76 in 0.2 mi NW 8.1 mph 17.3 mph N/A Fog Fog
8:10 PM 35.6 °F 29.9 °F 35.6 °F 100% 29.78 in 0.2 mi NW 6.9 mph - N/A Fog Fog
8:30 PM 35.6 °F 30.7 °F 35.6 °F 100% 29.80 in 0.2 mi NW 5.8 mph - N/A Fog Fog
10:10 PM 33.8 °F 25.8 °F 33.8 °F 100% 29.84 in 0.2 mi WNW 10.4 mph - N/A Fog Fog
10:30 PM 33.8 °F 25.3 °F 33.8 °F 100% 29.85 in 0.2 mi WNW 11.5 mph 16.1 mph N/A Fog Fog
10:50 PM 33.8 °F 25.8 °F 33.8 °F 100% 29.85 in 0.2 mi NW 10.4 mph - N/A Fog Fog
11:10 PM 32.0 °F 25.6 °F 32.0 °F 100% 29.85 in 0.2 mi WNW 6.9 mph - N/A Fog Fog
11:35 PM 32.0 °F 23.6 °F 32.0 °F 100% 29.86 in 0.2 mi WNW 10.4 mph - N/A Fog Fog
11:55 PM 32.0 °F 23.6 °F 32.0 °F 100% 29.85 in 2.5 mi WNW 10.4 mph 17.3 mph N/A   Overcast